KBIS/BIS METAR and TAF weather

Enter ICAO airport designator
Station Type Date Time Source
KBIS METAR 2019/04/25 01:52 UTC NOAA

KBIS 250152Z 33005KT 10SM CLR 16/01 A2981 RMK AO2 SLP096 T01610011


Station Type Date Time Source
KBIS Decoded METAR 2019/04/25 01:52 UTC NOAA

BISMARCK MUNICIPAL AIRPORT, ND, United States (KBIS) 46-47N 100-45W 503M
Apr 24, 2019 - 09:52 PM EDT / 2019.04.25 0152 UTC
Wind: from the NNW (330 degrees) at 6 MPH (5 KT):0
Visibility: 10 mile(s):0
Sky conditions: clear
Temperature: 61.0 F (16.1 C)
Dew Point: 34.0 F (1.1 C)
Relative Humidity: 36%
Pressure (altimeter): 29.81 in. Hg (1009 hPa)
ob: KBIS 250152Z 33005KT 10SM CLR 16/01 A2981 RMK AO2 SLP096 T01610011
cycle: 2

Station Type Date Time Source
KBIS TAF 2019/04/24 18:28 UTC NOAA

TAF KBIS 241726Z 2418/2518 31014G20KT P6SM FEW150
FM250001 VRB05KT P6SM FEW150
FM250015 31015G22KT P6SM SCT200

Example: see airport list